Time;durP1;ratioP1;P1;durP2;ratioP2;P2;SDS_P1;SDS_P2;PMS_P1;PMS_P2;Temp;Humidity;BMP_temperature;BMP_pressure;BME280_temperature;BME280_humidity;BME280_pressure;Samples;Min_cycle;Max_cycle;Signal;HPM_P1;HPM_P2
2021/01/14 00:02:05;;;;;;;34.53;21.87;;;;;;;1.87;64.63;100819.46;1737270;82;21177;-47
2021/01/14 00:04:33;;;;;;;37.05;24.30;;;;;;;1.87;64.79;100816.90;1732157;82;21156;-45
2021/01/14 00:07:02;;;;;;;33.00;22.27;;;;;;;1.91;64.83;100824.20;1735177;82;21152;-45
2021/01/14 00:09:30;;;;;;;33.92;23.80;;;;;;;1.93;64.76;100827.25;1742418;80;21152;-45
2021/01/14 00:11:58;;;;;;;33.38;23.00;;;;;;;1.96;64.74;100823.87;1737235;82;21192;-45
2021/01/14 00:14:26;;;;;;;33.78;22.32;;;;;;;1.99;64.71;100829.02;1738952;82;21140;-45
2021/01/14 00:16:55;;;;;;;33.38;22.93;;;;;;;2.01;64.70;100822.20;1737903;80;21295;-47
2021/01/14 00:19:23;;;;;;;30.95;21.73;;;;;;;2.02;64.60;100818.81;1737490;82;21133;-47
2021/01/14 00:21:51;;;;;;;35.10;23.80;;;;;;;2.05;64.59;100820.13;1741453;82;21187;-45
2021/01/14 00:24:20;;;;;;;34.33;22.07;;;;;;;2.06;64.50;100825.72;1734126;82;21293;-45
2021/01/14 00:26:48;;;;;;;34.05;23.62;;;;;;;2.06;64.45;100818.02;1750685;82;21338;-46
2021/01/14 00:29:16;;;;;;;36.48;23.40;;;;;;;2.07;64.37;100821.01;1738407;82;21184;-45
2021/01/14 00:31:44;;;;;;;34.33;23.92;;;;;;;2.08;64.33;100820.18;1739993;82;21565;-46
2021/01/14 00:34:14;;;;;;;34.80;23.45;;;;;;;2.06;64.42;100821.42;1747571;82;21156;-45
2021/01/14 00:39:31;;;;;;;39.45;24.02;;;;;;;2.07;64.32;100814.59;1732110;82;21289;-45
2021/01/14 00:42:00;;;;;;;30.77;21.30;;;;;;;2.07;64.27;100817.16;1742531;82;21180;-45
2021/01/14 00:44:28;;;;;;;36.55;23.50;;;;;;;2.06;64.29;100811.60;1736471;82;21318;-45
2021/01/14 00:46:57;;;;;;;36.48;22.60;;;;;;;2.03;64.31;100816.67;1738059;82;21164;-45
2021/01/14 00:49:25;;;;;;;35.58;23.55;;;;;;;2.03;64.27;100814.11;1741260;82;21156;-45
2021/01/14 00:51:54;;;;;;;36.90;24.07;;;;;;;2.02;64.45;100814.97;1734383;82;21136;-45
2021/01/14 00:54:22;;;;;;;35.55;22.80;;;;;;;2.01;64.46;100816.66;1741535;82;21298;-45
2021/01/14 00:56:50;;;;;;;33.18;22.80;;;;;;;2.02;64.39;100808.55;1737340;82;21310;-45
2021/01/14 00:59:19;;;;;;;34.08;21.90;;;;;;;2.01;64.47;100810.66;1738661;82;21145;-47
2021/01/14 01:01:47;;;;;;;34.60;22.75;;;;;;;1.99;64.55;100808.08;1739376;82;21152;-45
2021/01/14 01:04:15;;;;;;;32.20;21.55;;;;;;;2.00;64.46;100808.95;1746921;82;21144;-44
2021/01/14 01:06:44;;;;;;;34.80;22.85;;;;;;;1.99;64.48;100820.91;1741172;82;21212;-45
2021/01/14 01:09:12;;;;;;;33.35;21.90;;;;;;;1.97;64.42;100819.16;1737969;82;21314;-45
2021/01/14 01:11:40;;;;;;;33.85;21.62;;;;;;;1.86;64.78;100818.14;1747680;82;21283;-47
2021/01/14 01:14:09;;;;;;;32.80;21.77;;;;;;;1.91;64.46;100813.95;1744610;82;21129;-47
2021/01/14 01:16:38;;;;;;;34.03;22.40;;;;;;;1.90;64.49;100818.62;1736524;82;21140;-47
2021/01/14 01:19:06;;;;;;;35.28;23.02;;;;;;;1.89;64.49;100820.77;1738730;82;21141;-47
2021/01/14 01:21:34;;;;;;;31.30;21.48;;;;;;;1.88;64.57;100816.45;1736236;82;21161;-47
2021/01/14 01:24:03;;;;;;;33.58;21.23;;;;;;;1.88;64.68;100817.73;1742402;82;21117;-47
2021/01/14 01:26:31;;;;;;;34.92;22.70;;;;;;;1.88;64.61;100816.45;1734152;82;21294;-47
2021/01/14 01:29:00;;;;;;;34.15;23.22;;;;;;;1.89;64.75;100823.33;1739631;82;21601;-47
2021/01/14 01:31:28;;;;;;;33.90;22.67;;;;;;;1.89;64.75;100820.34;1738131;82;21172;-47
2021/01/14 01:33:56;;;;;;;34.03;21.10;;;;;;;1.91;64.76;100824.20;1739465;82;21172;-47
2021/01/14 01:36:24;;;;;;;33.50;23.45;;;;;;;1.91;64.74;100819.08;1737502;82;21168;-47
2021/01/14 01:38:53;;;;;;;34.63;21.90;;;;;;;1.92;64.85;100825.50;1744840;82;21176;-47
2021/01/14 01:41:22;;;;;;;35.45;23.85;;;;;;;1.94;64.96;100822.54;1741841;82;21145;-47
2021/01/14 01:43:50;;;;;;;32.70;21.62;;;;;;;1.95;64.93;100825.97;1734766;82;21207;-47
2021/01/14 01:46:29;;;;;;;31.80;21.95;;;;;;;1.94;64.97;100824.27;1740924;82;21117;-47
2021/01/14 01:48:58;;;;;;;33.73;22.55;;;;;;;1.94;65.03;100821.70;1736455;82;21144;-47
2021/01/14 01:51:36;;;;;;;31.60;21.48;;;;;;;1.95;65.18;100821.71;1739058;82;21625;-47
2021/01/14 01:54:04;;;;;;;35.70;23.18;;;;;;;1.96;65.12;100818.29;1747577;82;21177;-46
2021/01/14 01:56:33;;;;;;;32.63;22.85;;;;;;;1.99;65.18;100818.77;1738884;82;21133;-46
2021/01/14 01:59:02;;;;;;;30.12;21.07;;;;;;;2.01;65.21;100813.23;1744023;82;21183;-46
2021/01/14 02:01:30;;;;;;;31.23;20.45;;;;;;;2.02;65.15;100800.85;1738833;82;21125;-46
2021/01/14 02:03:59;;;;;;;33.10;22.40;;;;;;;2.03;65.06;100798.30;1750391;82;21141;-46
2021/01/14 02:06:27;;;;;;;30.75;21.25;;;;;;;2.06;64.97;100796.20;1738736;82;21177;-47
2021/01/14 02:08:59;;;;;;;29.77;20.12;;;;;;;2.07;64.92;100792.77;1737948;82;21125;-46
2021/01/14 02:11:30;;;;;;;31.95;22.00;;;;;;;2.07;64.94;100788.92;1743997;80;21157;-47
2021/01/14 02:14:20;;;;;;;31.63;20.03;;;;;;;2.08;64.88;100790.66;1740103;82;21145;-46
2021/01/14 02:16:50;;;;;;;32.60;21.48;;;;;;;2.07;64.95;100790.20;1743949;82;21317;-46
2021/01/14 02:19:34;;;;;;;32.17;20.10;;;;;;;2.09;64.97;100788.52;1714125;82;21147;-46
2021/01/14 02:22:06;;;;;;;31.97;21.60;;;;;;;2.11;65.00;100786.84;1740301;82;21195;-46
2021/01/14 02:24:37;;;;;;;;;;;;;;;2.13;65.05;100792.85;1739582;82;21207;-44
2021/01/14 02:27:06;;;;;;;31.40;21.17;;;;;;;2.13;64.99;100795.42;1741686;82;20173;-46
2021/01/14 02:29:36;;;;;;;31.45;20.20;;;;;;;2.13;65.11;100797.98;1723194;82;21164;-46
2021/01/14 02:32:07;;;;;;;31.75;20.90;;;;;;;2.12;65.10;100796.28;1732211;82;21153;-46
2021/01/14 02:34:35;;;;;;;28.00;19.40;;;;;;;2.11;65.09;100794.13;1737994;82;21193;-45
2021/01/14 02:37:04;;;;;;;28.95;19.20;;;;;;;2.14;65.08;100796.71;1734907;82;21156;-45
2021/01/14 02:39:32;;;;;;;29.87;20.48;;;;;;;2.16;64.89;100795.47;1732259;82;21172;-47
2021/01/14 02:42:00;;;;;;;28.57;20.32;;;;;;;2.15;64.84;100796.30;1743073;82;21224;-45
2021/01/14 02:44:28;;;;;;;28.38;20.77;;;;;;;2.15;64.71;100796.30;1736267;82;21211;-45
2021/01/14 02:46:57;;;;;;;28.02;19.52;;;;;;;2.14;64.62;100792.86;1737972;82;21164;-46
2021/01/14 02:49:27;;;;;;;27.90;19.62;;;;;;;2.15;64.58;100801.44;1740744;82;21295;-47
2021/01/14 02:51:57;;;;;;;28.25;19.32;;;;;;;2.14;64.52;100810.83;1734642;82;21144;-47
2021/01/14 02:54:25;;;;;;;28.55;19.50;;;;;;;2.16;64.42;100817.29;1736137;82;21179;-47
2021/01/14 02:56:54;;;;;;;33.05;21.55;;;;;;;2.15;64.35;100816.83;1737141;82;21192;-47
2021/01/14 02:59:22;;;;;;;29.48;19.48;;;;;;;2.14;64.33;100812.56;1739181;82;21554;-47
2021/01/14 03:01:52;;;;;;;31.68;20.25;;;;;;;2.14;64.26;100816.41;1740055;82;21168;-47
2021/01/14 03:04:20;;;;;;;30.15;19.48;;;;;;;2.11;64.19;100821.08;1745886;82;21731;-46
2021/01/14 03:06:49;;;;;;;30.00;19.62;;;;;;;2.11;64.22;100825.34;1741618;82;21169;-47
2021/01/14 03:09:18;;;;;;;32.83;20.05;;;;;;;2.10;64.22;100825.75;1737551;82;21160;-47
2021/01/14 03:11:46;;;;;;;28.83;19.17;;;;;;;2.10;64.20;100823.19;1739101;82;21156;-46
2021/01/14 03:14:14;;;;;;;30.90;20.62;;;;;;;2.09;64.15;100823.17;1737699;82;21589;-47
2021/01/14 03:16:43;;;;;;;28.65;18.50;;;;;;;2.10;64.01;100819.78;1737459;82;21589;-46
2021/01/14 03:19:11;;;;;;;33.80;21.45;;;;;;;2.07;63.99;100819.31;1740690;82;21108;-46
2021/01/14 03:21:39;;;;;;;28.42;18.37;;;;;;;2.06;63.96;100825.72;1734185;82;21160;-46
2021/01/14 03:24:09;;;;;;;29.15;20.15;;;;;;;2.04;63.97;100814.56;1744706;82;21160;-46
2021/01/14 03:26:38;;;;;;;29.18;19.90;;;;;;;2.04;64.00;100819.70;1732497;82;21120;-46
2021/01/14 03:29:06;;;;;;;31.80;20.75;;;;;;;2.02;63.94;100812.41;1742804;82;21156;-46
2021/01/14 03:31:35;;;;;;;27.50;19.20;;;;;;;2.00;63.93;100809.79;1727790;82;21153;-46
2021/01/14 03:34:03;;;;;;;29.07;19.82;;;;;;;2.01;63.90;100814.09;1729013;82;21289;-46
2021/01/14 03:36:32;;;;;;;29.25;20.02;;;;;;;2.00;63.82;100816.66;1723439;82;21299;-47
2021/01/14 03:39:01;;;;;;;30.68;20.08;;;;;;;1.98;63.80;100817.05;1718563;82;21161;-46
2021/01/14 03:41:30;;;;;;;31.62;21.60;;;;;;;1.97;63.79;100816.59;1722811;82;21169;-46
2021/01/14 03:43:58;;;;;;;29.85;20.35;;;;;;;1.95;63.81;100816.58;1728086;82;21291;-46
2021/01/14 03:46:27;;;;;;;29.50;19.30;;;;;;;1.94;63.88;100822.98;1720723;82;21271;-46
2021/01/14 03:48:55;;;;;;;31.02;21.20;;;;;;;1.92;63.91;100819.50;1726377;82;21164;-46
2021/01/14 03:51:24;;;;;;;28.07;19.37;;;;;;;1.93;63.93;100828.53;1724307;82;21299;-46
2021/01/14 03:53:52;;;;;;;30.27;20.45;;;;;;;1.91;64.05;100820.36;1725239;82;21165;-46
2021/01/14 03:56:21;;;;;;;29.12;19.30;;;;;;;1.92;64.09;100829.77;1729888;82;21169;-47
2021/01/14 03:58:49;;;;;;;31.80;21.48;;;;;;;1.92;64.11;100828.48;1723239;82;21184;-46
2021/01/14 04:01:22;;;;;;;32.10;20.48;;;;;;;1.91;64.08;100829.34;1728076;82;21165;-46
2021/01/14 04:03:50;;;;;;;32.05;20.23;;;;;;;1.91;63.97;100830.63;1711962;82;21535;-46
2021/01/14 04:06:20;;;;;;;29.77;20.40;;;;;;;1.90;63.97;100837.86;1724120;82;21176;-46
2021/01/14 04:08:48;;;;;;;28.75;19.07;;;;;;;1.89;63.93;100834.88;1725679;82;21169;-47
2021/01/14 04:11:16;;;;;;;30.62;20.35;;;;;;;1.88;63.91;100836.98;1723530;82;21149;-46
2021/01/14 04:13:44;;;;;;;29.85;20.23;;;;;;;1.87;63.95;100831.42;1728244;82;21565;-46
2021/01/14 04:16:13;;;;;;;30.15;20.97;;;;;;;1.86;64.00;100833.53;1719167;82;21597;-46
2021/01/14 04:18:41;;;;;;;30.72;19.73;;;;;;;1.86;64.01;100827.11;1730864;82;21157;-46
2021/01/14 04:21:12;;;;;;;31.20;19.42;;;;;;;1.85;63.96;100821.56;1719790;82;21156;-46
2021/01/14 04:23:42;;;;;;;32.95;22.10;;;;;;;1.85;64.01;100822.84;1724905;82;21209;-46
2021/01/14 04:26:12;;;;;;;29.10;19.02;;;;;;;1.84;63.99;100820.69;1726264;82;21614;-46
2021/01/14 04:28:41;;;;;;;29.07;19.85;;;;;;;1.84;63.96;100817.25;1725689;82;21204;-46
2021/01/14 04:31:14;;;;;;;26.50;18.67;;;;;;;1.86;63.93;100823.27;1719470;82;21172;-46
2021/01/14 04:33:44;;;;;;;29.52;20.37;;;;;;;1.85;63.95;100821.56;1732168;82;21203;-46
2021/01/14 04:36:14;;;;;;;27.80;19.00;;;;;;;1.84;63.93;100817.25;1738858;82;21133;-46
2021/01/14 04:38:43;;;;;;;30.82;21.07;;;;;;;1.83;63.93;100821.95;1737950;82;21294;-46
2021/01/14 04:41:11;;;;;;;29.80;19.60;;;;;;;1.80;64.03;100818.05;1742241;82;21140;-46
2021/01/14 04:43:39;;;;;;;30.32;19.32;;;;;;;1.79;64.03;100819.78;1736022;82;21310;-46
2021/01/14 04:46:11;;;;;;;30.77;18.90;;;;;;;1.79;64.13;100818.91;1738861;82;21188;-46
2021/01/14 04:48:41;;;;;;;;;;;;;;;1.79;64.17;100821.47;1748358;82;21148;-46
2021/01/14 04:51:18;;;;;;;32.00;20.20;;;;;;;1.80;64.16;100819.33;1739162;82;20152;-45
2021/01/14 04:53:48;;;;;;;32.10;18.98;;;;;;;1.79;64.06;100813.77;1675828;85;21173;-45
2021/01/14 04:56:18;;;;;;;28.92;19.55;;;;;;;1.80;64.03;100825.74;1676594;85;21179;-44
2021/01/14 04:58:47;;;;;;;27.77;18.62;;;;;;;1.80;63.86;100824.46;1677234;85;21236;-45
2021/01/14 05:01:23;;;;;;;26.35;17.62;;;;;;;1.77;63.78;100820.17;1677103;85;21166;-45
2021/01/14 05:03:52;;;;;;;28.45;19.35;;;;;;;1.77;63.67;100820.17;1669533;85;21205;-45
2021/01/14 05:06:24;;;;;;;30.20;18.85;;;;;;;1.76;63.53;100821.41;1673040;85;21160;-45
2021/01/14 05:08:58;;;;;;;29.77;19.12;;;;;;;1.74;63.44;100819.25;1676586;85;21140;-45
2021/01/14 05:11:28;;;;;;;25.80;17.10;;;;;;;1.72;63.37;100813.23;1675176;85;21204;-45
2021/01/14 05:13:56;;;;;;;29.75;19.10;;;;;;;1.69;63.27;100815.32;1649541;85;21655;-45
2021/01/14 05:16:24;;;;;;;26.45;18.15;;;;;;;1.69;63.31;100811.92;1677524;85;21328;-45
2021/01/14 05:18:53;;;;;;;29.35;19.42;;;;;;;1.66;63.15;100806.31;1677059;85;21787;-45
2021/01/14 05:21:21;;;;;;;28.73;18.40;;;;;;;1.65;63.15;100815.70;1675902;85;21180;-45
2021/01/14 05:24:09;;;;;;;29.40;18.50;;;;;;;1.62;63.12;100816.95;1653321;85;21137;-45
2021/01/14 05:26:38;;;;;;;26.60;17.67;;;;;;;1.62;63.04;100824.66;1673605;85;21204;-45
2021/01/14 05:29:17;;;;;;;26.68;18.25;;;;;;;1.60;62.92;100826.33;1675213;85;21142;-45
2021/01/14 05:31:46;;;;;;;28.38;18.55;;;;;;;1.59;62.88;100822.03;1676375;85;21181;-45
2021/01/14 05:34:15;;;;;;;27.48;18.75;;;;;;;1.58;62.76;100832.27;1674547;85;21192;-45
2021/01/14 05:37:03;;;;;;;27.73;19.50;;;;;;;1.55;62.82;100824.10;1676857;85;21330;-45
2021/01/14 05:39:31;;;;;;;28.50;19.23;;;;;;;1.53;62.85;100823.22;1677712;85;21185;-45
2021/01/14 05:42:01;;;;;;;28.32;18.07;;;;;;;1.52;62.88;100826.64;1677387;85;21327;-45
2021/01/14 05:44:38;;;;;;;28.75;19.32;;;;;;;1.55;62.95;100824.10;1807722;79;22777;-45
2021/01/14 05:47:20;;;;;;;30.37;18.57;;;;;;;1.51;62.92;100829.16;1771650;80;21159;-46
2021/01/14 05:50:05;;;;;;;31.82;20.10;;;;;;;1.51;63.03;100831.30;1736217;82;21245;-46
2021/01/14 05:52:33;;;;;;;26.42;17.62;;;;;;;1.48;62.82;100831.24;1672717;85;21212;-45
2021/01/14 05:55:07;;;;;;;29.00;18.50;;;;;;;1.47;62.86;100834.66;1673929;85;21392;-46
2021/01/14 05:57:40;;;;;;;33.23;21.30;;;;;;;1.46;63.08;100834.20;1739030;82;21112;-46
2021/01/14 06:02:47;;;;;;;28.47;19.87;;;;;;;1.52;63.17;100830.48;1781038;79;23141;-46
2021/01/14 06:05:32;;;;;;;29.23;18.52;;;;;;;1.49;63.12;100827.86;1744679;82;21584;-46
2021/01/14 06:08:02;;;;;;;28.47;19.12;;;;;;;1.49;63.09;100830.42;1739268;82;21149;-45
2021/01/14 06:10:31;;;;;;;26.37;18.27;;;;;;;1.50;63.05;100830.88;1732966;82;21168;-46
2021/01/14 06:12:59;;;;;;;28.60;19.37;;;;;;;1.50;63.16;100827.03;1741273;82;21169;-46
2021/01/14 06:15:28;;;;;;;27.15;17.45;;;;;;;1.52;63.22;100829.20;1738459;82;21321;-46
2021/01/14 06:17:59;;;;;;;25.60;18.42;;;;;;;1.54;63.22;100832.65;1736416;82;21153;-46
2021/01/14 06:20:27;;;;;;;24.65;17.87;;;;;;;1.55;63.28;100840.77;1741910;82;21116;-46
2021/01/14 06:22:58;;;;;;;27.67;18.90;;;;;;;1.57;63.39;100844.22;1734264;82;21192;-46
2021/01/14 06:25:27;;;;;;;26.70;17.35;;;;;;;1.59;63.25;100839.98;1688793;84;21317;-46
2021/01/14 06:27:55;;;;;;;27.10;18.80;;;;;;;1.61;63.21;100848.56;1688324;84;21211;-46
2021/01/14 06:30:24;;;;;;;30.15;19.62;;;;;;;1.62;63.34;100840.05;1686341;84;21388;-45
2021/01/14 06:33:01;;;;;;;26.20;17.48;;;;;;;1.65;63.40;100847.77;1686125;84;21172;-45
2021/01/14 06:35:35;;;;;;;27.05;18.07;;;;;;;1.72;63.41;100846.16;1770840;79;23075;-46
2021/01/14 08:15:36;;;;;;;35.92;20.52;;;;;;;-0.13;74.80;100878.88;1822771;77;26924;-45
2021/01/14 08:18:11;;;;;;;32.15;20.27;;;;;;;0.50;72.14;100886.20;1782770;79;21299;-45
2021/01/14 08:20:40;;;;;;;24.50;17.77;;;;;;;0.72;71.53;100884.55;1777237;79;21195;-46
2021/01/14 08:23:13;;;;;;;23.45;15.95;;;;;;;0.90;70.97;100887.47;1788466;79;21335;-45
2021/01/14 08:25:43;;;;;;;24.43;17.60;;;;;;;0.99;70.46;100886.34;1672553;84;21409;-45
2021/01/14 08:28:11;;;;;;;25.82;17.20;;;;;;;1.08;70.12;100889.08;1695620;83;21176;-45
2021/01/14 08:30:40;;;;;;;26.45;19.27;;;;;;;1.22;70.02;100876.09;1676656;84;21675;-45
2021/01/14 08:33:08;;;;;;;22.82;16.65;;;;;;;1.42;69.91;100868.32;1698509;82;21249;-45
2021/01/14 08:35:40;;;;;;;22.27;16.37;;;;;;;1.62;69.54;100868.25;1682535;83;21181;-46
2021/01/14 08:38:15;;;;;;;25.12;16.77;;;;;;;1.85;69.15;100878.00;1735699;81;21180;-46
2021/01/14 08:40:44;;;;;;;24.60;16.90;;;;;;;2.05;68.75;100871.45;1729472;81;21306;-46
2021/01/14 08:43:14;;;;;;;27.70;19.12;;;;;;;2.22;68.36;100880.27;1737874;80;21193;-46
2021/01/14 08:45:49;;;;;;;27.82;18.30;;;;;;;2.38;67.82;100879.62;1740623;81;21194;-45
2021/01/14 08:48:24;;;;;;;45.83;19.37;;;;;;;2.51;67.30;100878.08;1723960;81;21592;-46
2021/01/14 08:51:00;;;;;;;20.95;16.40;;;;;;;2.64;66.95;100883.38;1735965;81;21235;-46
2021/01/14 08:53:35;;;;;;;20.70;15.08;;;;;;;2.76;66.60;100880.95;1740487;81;21239;-46
2021/01/14 08:56:10;;;;;;;24.00;16.90;;;;;;;2.86;66.32;100877.66;1736488;81;21682;-45
2021/01/14 08:58:48;;;;;;;23.38;16.77;;;;;;;2.98;66.01;100875.23;1735641;81;21175;-46
2021/01/14 09:01:21;;;;;;;23.42;17.27;;;;;;;3.07;65.71;100865.02;1729925;81;21216;-45
2021/01/14 09:03:51;;;;;;;24.65;17.62;;;;;;;3.15;65.40;100855.67;1742825;81;21231;-45
2021/01/14 09:06:37;;;;;;;21.45;16.57;;;;;;;3.22;65.21;100851.04;1737884;81;21196;-45
2021/01/14 09:09:16;;;;;;;19.25;16.80;;;;;;;3.36;65.02;100849.03;1754345;79;28857;-45
2021/01/14 09:11:46;;;;;;;20.12;16.25;;;;;;;3.44;64.93;100855.09;1736945;82;21161;-47
2021/01/14 09:14:15;;;;;;;18.52;14.10;;;;;;;3.56;64.54;100855.20;1732014;82;21141;-45
2021/01/14 09:16:46;;;;;;;18.07;14.65;;;;;;;3.61;64.33;100856.08;1736931;82;21620;-45
2021/01/14 09:19:19;;;;;;;20.10;13.25;;;;;;;3.66;64.25;100851.84;1733790;82;21196;-45
2021/01/14 09:21:48;;;;;;;18.77;14.18;;;;;;;3.72;64.13;100849.31;1736111;82;21168;-46
2021/01/14 09:24:18;;;;;;;16.33;12.73;;;;;;;3.77;64.07;100848.48;1743668;82;21687;-45
2021/01/14 09:26:50;;;;;;;17.23;12.35;;;;;;;3.83;63.83;100842.55;1731906;82;21164;-45
2021/01/14 09:29:21;;;;;;;16.00;12.70;;;;;;;3.87;63.49;100843.00;1732129;82;21161;-45
2021/01/14 09:31:50;;;;;;;17.27;12.82;;;;;;;3.90;63.27;100840.01;1742774;82;21153;-46
2021/01/14 09:34:22;;;;;;;17.30;12.95;;;;;;;3.92;63.17;100838.30;1735894;81;21196;-45
2021/01/14 09:36:50;;;;;;;17.50;13.72;;;;;;;3.95;63.07;100845.19;1710997;83;21204;-46
2021/01/14 09:39:19;;;;;;;15.83;12.78;;;;;;;3.97;63.03;100838.34;1714606;83;21341;-46
2021/01/14 09:41:47;;;;;;;15.93;12.60;;;;;;;4.03;62.87;100836.67;1720517;83;21393;-46
2021/01/14 09:44:16;;;;;;;16.70;12.40;;;;;;;4.09;62.65;100838.41;1714513;83;21167;-46
2021/01/14 09:46:47;;;;;;;16.55;12.45;;;;;;;4.14;62.56;100835.00;1714475;83;21160;-46
2021/01/14 09:49:19;;;;;;;14.65;12.00;;;;;;;4.21;62.51;100830.74;1717202;83;21156;-46
2021/01/14 09:51:47;;;;;;;18.17;12.80;;;;;;;4.27;62.18;100832.48;1722889;83;21254;-46
2021/01/14 09:54:17;;;;;;;15.65;12.43;;;;;;;4.31;61.79;100835.09;1716286;83;21168;-46
2021/01/14 09:56:48;;;;;;;16.30;12.20;;;;;;;4.35;61.67;100838.11;1718563;83;21671;-48
2021/01/14 09:59:36;;;;;;;17.73;12.80;;;;;;;4.38;61.52;100844.58;1715222;83;21189;-46
2021/01/14 10:02:26;;;;;;;18.65;13.22;;;;;;;4.40;61.41;100837.72;1715394;83;21215;-47
2021/01/14 10:04:59;;;;;;;16.00;13.08;;;;;;;4.46;61.36;100833.87;1717444;83;21207;-46
2021/01/14 10:07:28;;;;;;;18.60;12.65;;;;;;;4.51;61.28;100833.90;1715169;82;21164;-48
2021/01/14 10:09:57;;;;;;;15.72;12.28;;;;;;;4.56;61.18;100833.05;1715128;83;21176;-46
2021/01/14 10:12:26;;;;;;;14.83;12.50;;;;;;;4.61;61.02;100817.19;1714067;83;21293;-46
2021/01/14 10:15:13;;;;;;;17.42;12.78;;;;;;;4.68;60.79;100816.34;1722629;83;21261;-46
2021/01/14 10:17:42;;;;;;;16.75;12.45;;;;;;;4.72;60.57;100815.49;1721904;83;21136;-46
2021/01/14 10:20:12;;;;;;;15.70;12.18;;;;;;;4.76;60.44;100802.20;1707581;83;21168;-46
2021/01/14 10:22:52;;;;;;;14.07;10.55;;;;;;;4.79;60.44;100804.35;1714482;83;22417;-46
2021/01/14 10:25:26;;;;;;;13.08;10.30;;;;;;;4.83;60.25;100780.72;1799892;79;22343;-46
2021/01/14 10:28:00;;;;;;;14.15;11.12;;;;;;;4.78;60.26;100784.57;1787675;80;21310;-46
2021/01/14 10:30:29;;;;;;;12.58;9.70;;;;;;;4.78;60.21;100783.28;1787892;80;21187;-46
2021/01/14 10:33:04;;;;;;;16.95;11.53;;;;;;;4.78;60.26;100781.16;1738841;81;22266;-46
2021/01/14 10:35:33;;;;;;;12.88;10.55;;;;;;;4.80;60.39;100783.31;1664621;83;21188;-47
2021/01/14 10:38:13;;;;;;;13.00;10.23;;;;;;;4.82;60.47;100778.56;1661234;83;21252;-47
2021/01/14 10:40:50;;;;;;;11.53;9.98;;;;;;;4.86;60.41;100777.70;1675033;85;21200;-48
2021/01/14 10:43:34;;;;;;;11.15;9.40;;;;;;;4.93;60.28;100772.14;1805081;79;22823;-47
2021/01/14 10:46:03;;;;;;;12.82;10.23;;;;;;;4.89;60.16;100767.41;1717513;83;21220;-47
2021/01/14 10:48:39;;;;;;;13.98;11.60;;;;;;;4.88;60.12;100768.26;1717085;83;21229;-45
2021/01/14 10:51:13;;;;;;;10.75;9.10;;;;;;;4.95;60.26;100754.53;1812657;79;22978;-46
2021/01/14 10:53:42;;;;;;;12.88;9.85;;;;;;;4.94;60.34;100761.85;1790511;80;21274;-45
2021/01/14 10:56:19;;;;;;;12.75;10.65;;;;;;;4.99;60.14;100763.12;1784210;80;21144;-46
2021/01/14 10:58:57;;;;;;;13.95;10.45;;;;;;;5.04;60.07;100761.84;1783831;80;21167;-46
2021/01/14 11:01:26;;;;;;;11.05;9.40;;;;;;;5.08;59.96;100763.56;1770121;80;21299;-45
2021/01/14 11:03:55;;;;;;;11.97;9.63;;;;;;;5.09;59.82;100756.27;1783874;80;21140;-46
2021/01/14 11:06:39;;;;;;;12.53;10.15;;;;;;;5.10;59.77;100755.39;1783991;80;22086;-46
2021/01/14 11:09:08;;;;;;;13.65;10.20;;;;;;;5.11;59.77;100749.39;1790642;80;21160;-46
2021/01/14 11:11:37;;;;;;;12.63;9.98;;;;;;;5.10;59.95;100742.50;1726576;83;21171;-46
2021/01/14 11:14:06;;;;;;;10.90;9.70;;;;;;;5.11;60.12;100741.66;1742603;81;21133;-46
2021/01/14 11:16:35;;;;;;;12.00;9.83;;;;;;;5.13;60.24;100739.94;1697942;83;21162;-46
2021/01/14 11:19:04;;;;;;;11.53;9.30;;;;;;;5.17;60.20;100736.49;1741865;81;21172;-45
2021/01/14 11:21:34;;;;;;;11.57;9.73;;;;;;;5.19;60.01;100733.06;1753397;81;21627;-46
2021/01/14 11:24:04;;;;;;;10.40;9.10;;;;;;;5.23;60.04;100737.36;1747230;81;21172;-46
2021/01/14 11:26:32;;;;;;;11.95;10.58;;;;;;;5.30;59.90;100738.19;1726475;83;21123;-46
2021/01/14 11:29:02;;;;;;;12.65;10.30;;;;;;;5.35;59.79;100740.34;1750486;81;21306;-45
2021/01/14 11:31:32;;;;;;;13.38;11.00;;;;;;;5.39;59.50;100735.61;1725295;83;21191;-45
2021/01/14 11:34:00;;;;;;;16.25;12.00;;;;;;;5.40;59.31;100734.77;1745691;81;21580;-45
2021/01/14 11:36:28;;;;;;;14.35;12.03;;;;;;;5.12;59.97;100733.91;1725296;83;21193;-45
2021/01/14 11:38:57;;;;;;;16.23;11.70;;;;;;;5.16;59.69;100738.63;1745849;81;21153;-45
2021/01/14 11:41:26;;;;;;;15.72;13.20;;;;;;;5.32;59.26;100736.47;1746789;81;21152;-45
2021/01/14 11:43:54;;;;;;;17.17;13.60;;;;;;;4.98;60.25;100736.92;1755078;81;21149;-45
2021/01/14 11:46:26;;;;;;;12.78;11.45;;;;;;;4.94;60.67;100739.94;1750164;81;21643;-45
2021/01/14 11:48:54;;;;;;;12.82;11.45;;;;;;;4.95;60.54;100733.91;1725593;83;21170;-45
2021/01/14 11:51:23;;;;;;;14.63;12.20;;;;;;;4.99;60.44;100742.95;1720486;83;21166;-46
2021/01/14 11:53:51;;;;;;;16.70;11.15;;;;;;;5.02;60.30;100745.51;1771410;80;21161;-45
2021/01/14 11:56:20;;;;;;;12.85;10.55;;;;;;;5.02;59.96;100744.22;1772789;80;21160;-45
2021/01/14 11:58:49;;;;;;;12.33;11.03;;;;;;;5.00;59.95;100745.94;1779288;80;21135;-45
2021/01/14 12:01:22;;;;;;;13.50;11.33;;;;;;;4.95;59.83;100741.64;1771886;80;21148;-45
2021/01/14 12:03:50;;;;;;;16.20;11.30;;;;;;;4.90;59.95;100747.20;1772214;80;21279;-45
2021/01/14 12:06:19;;;;;;;15.75;12.78;;;;;;;4.85;59.77;100744.20;1768694;80;21279;-45
2021/01/14 12:08:47;;;;;;;14.15;11.85;;;;;;;4.80;59.71;100748.05;1775423;80;21140;-45
2021/01/14 12:11:19;;;;;;;15.23;12.25;;;;;;;4.77;59.87;100744.20;1782489;80;21298;-45
2021/01/14 12:13:47;;;;;;;;;;;;;;;4.76;59.88;100752.78;1787791;80;21188;-45
2021/01/14 12:16:16;;;;;;;17.00;13.18;;;;;;;4.76;59.64;100750.20;1782445;80;20151;-45
2021/01/14 12:18:44;;;;;;;16.82;13.43;;;;;;;4.73;59.50;100752.79;1784458;80;21161;-45
2021/01/14 12:21:16;;;;;;;16.27;13.55;;;;;;;4.69;59.47;100758.80;1711107;84;21196;-45
2021/01/14 12:23:46;;;;;;;17.10;13.93;;;;;;;4.65;59.43;100754.49;1775663;80;21295;-45
2021/01/14 12:26:14;;;;;;;15.28;12.82;;;;;;;4.59;59.50;100755.77;1770853;80;21762;-45
2021/01/14 12:28:43;;;;;;;14.58;12.15;;;;;;;4.54;59.39;100756.17;1771220;80;21192;-45
2021/01/14 12:31:12;;;;;;;16.40;12.35;;;;;;;4.47;59.12;100755.70;1771841;80;21306;-45
2021/01/14 12:33:40;;;;;;;14.15;11.95;;;;;;;4.41;59.09;100767.28;1778676;80;21333;-45
2021/01/14 12:36:10;;;;;;;15.15;11.73;;;;;;;4.32;59.18;100764.70;1705738;84;21309;-45
2021/01/14 12:38:38;;;;;;;12.93;10.78;;;;;;;4.25;59.27;100769.37;1770434;80;21157;-45
2021/01/14 12:41:06;;;;;;;14.33;10.98;;;;;;;4.18;59.31;100763.78;1709955;84;21164;-45
2021/01/14 12:43:35;;;;;;;13.72;10.55;;;;;;;4.17;59.30;100762.05;1779464;80;21154;-45
2021/01/14 12:46:04;;;;;;;11.85;9.90;;;;;;;4.13;59.33;100762.89;1778669;80;21148;-45
2021/01/14 12:48:32;;;;;;;13.85;10.60;;;;;;;4.04;59.47;100757.69;1776853;80;21148;-45
2021/01/14 12:51:00;;;;;;;12.70;9.85;;;;;;;3.96;59.56;100762.81;1765813;80;21133;-45
2021/01/14 12:53:28;;;;;;;13.15;11.03;;;;;;;3.89;59.71;100753.77;1765298;81;21157;-46
2021/01/14 12:55:57;;;;;;;13.83;10.90;;;;;;;3.80;59.58;100755.87;1774323;81;21185;-46
2021/01/14 12:58:26;;;;;;;12.45;9.90;;;;;;;3.74;59.95;100756.25;1710124;83;21159;-46
2021/01/14 13:00:55;;;;;;;14.65;10.98;;;;;;;3.65;60.41;100750.62;1776570;81;21152;-46
2021/01/14 13:03:24;;;;;;;14.63;11.18;;;;;;;3.61;60.75;100742.87;1704533;84;21730;-46
2021/01/14 13:05:52;;;;;;;14.15;10.48;;;;;;;3.57;61.17;100746.27;1778450;81;21711;-47
2021/01/14 13:08:20;;;;;;;14.83;11.83;;;;;;;3.57;61.18;100744.57;1709043;84;21177;-46
2021/01/14 13:10:49;;;;;;;15.23;12.15;;;;;;;3.55;61.38;100746.27;1764545;81;21141;-45
2021/01/14 13:13:18;;;;;;;15.93;11.88;;;;;;;3.49;61.89;100751.80;1708649;84;21202;-46
2021/01/14 13:15:46;;;;;;;15.20;12.33;;;;;;;3.47;61.92;100741.92;1770502;81;21290;-46
2021/01/14 13:18:15;;;;;;;15.40;11.65;;;;;;;3.46;61.82;100738.94;1761851;81;21311;-46